sensor_id;sensor_type;location;lat;lon;timestamp;pressure;altitude;pressure_sealevel;temperature;humidity
77207;BME280;66190;50.708;7.906;2023-04-24T00:01:14;95063.03;;;8.97;85.99
77207;BME280;66190;50.708;7.906;2023-04-24T00:03:42;95058.38;;;8.92;86.73
77207;BME280;66190;50.708;7.906;2023-04-24T00:06:08;95057.19;;;8.88;88.21
77207;BME280;66190;50.708;7.906;2023-04-24T00:08:34;95045.25;;;8.84;88.69
77207;BME280;66190;50.708;7.906;2023-04-24T00:11:00;95043.50;;;8.78;89.57
77207;BME280;66190;50.708;7.906;2023-04-24T00:13:26;95046.69;;;8.69;89.90
77207;BME280;66190;50.708;7.906;2023-04-24T00:15:53;95038.44;;;8.70;90.63
77207;BME280;66190;50.708;7.906;2023-04-24T00:18:19;95036.13;;;8.74;90.73
77207;BME280;66190;50.708;7.906;2023-04-24T00:20:44;95036.34;;;8.72;91.17
77207;BME280;66190;50.708;7.906;2023-04-24T00:23:10;95048.56;;;8.68;91.30
77207;BME280;66190;50.708;7.906;2023-04-24T00:25:35;95041.19;;;8.64;91.50
77207;BME280;66190;50.708;7.906;2023-04-24T00:28:00;95039.09;;;8.66;91.73
77207;BME280;66190;50.708;7.906;2023-04-24T00:30:26;95032.34;;;8.63;91.92
77207;BME280;66190;50.708;7.906;2023-04-24T00:32:51;95027.72;;;8.70;91.98
77207;BME280;66190;50.708;7.906;2023-04-24T00:35:17;95030.94;;;8.61;92.44
77207;BME280;66190;50.708;7.906;2023-04-24T00:37:42;95030.47;;;8.64;92.55
77207;BME280;66190;50.708;7.906;2023-04-24T00:40:08;95026.31;;;8.68;93.06
77207;BME280;66190;50.708;7.906;2023-04-24T00:42:33;95026.06;;;8.69;92.75
77207;BME280;66190;50.708;7.906;2023-04-24T00:45:00;95021.31;;;8.71;92.50
77207;BME280;66190;50.708;7.906;2023-04-24T00:47:26;95015.13;;;8.71;92.96
77207;BME280;66190;50.708;7.906;2023-04-24T00:49:52;95008.38;;;8.68;92.60
77207;BME280;66190;50.708;7.906;2023-04-24T00:52:17;95004.63;;;8.69;92.85
77207;BME280;66190;50.708;7.906;2023-04-24T00:54:46;95002.19;;;8.68;92.84
77207;BME280;66190;50.708;7.906;2023-04-24T00:57:13;94996.22;;;8.66;92.66
77207;BME280;66190;50.708;7.906;2023-04-24T00:59:40;95017.66;;;8.66;92.62
77207;BME280;66190;50.708;7.906;2023-04-24T01:02:07;95009.38;;;8.67;92.48
77207;BME280;66190;50.708;7.906;2023-04-24T01:04:34;95011.28;;;8.67;92.70
77207;BME280;66190;50.708;7.906;2023-04-24T01:07:00;95022.44;;;8.64;92.89
77207;BME280;66190;50.708;7.906;2023-04-24T01:09:26;95022.88;;;8.61;93.07
77207;BME280;66190;50.708;7.906;2023-04-24T01:11:51;95019.47;;;8.54;93.65
77207;BME280;66190;50.708;7.906;2023-04-24T01:14:17;95026.91;;;8.52;94.23
77207;BME280;66190;50.708;7.906;2023-04-24T01:16:43;95028.63;;;8.46;94.42
77207;BME280;66190;50.708;7.906;2023-04-24T01:19:09;95035.34;;;8.37;94.83
77207;BME280;66190;50.708;7.906;2023-04-24T01:21:37;95028.78;;;8.33;94.63
77207;BME280;66190;50.708;7.906;2023-04-24T01:24:06;95029.88;;;8.26;94.44
77207;BME280;66190;50.708;7.906;2023-04-24T01:26:32;95030.13;;;8.24;94.16
77207;BME280;66190;50.708;7.906;2023-04-24T01:28:57;95031.78;;;8.19;94.23
77207;BME280;66190;50.708;7.906;2023-04-24T01:31:23;95026.06;;;8.15;94.01
77207;BME280;66190;50.708;7.906;2023-04-24T01:33:49;95016.03;;;8.11;93.33
77207;BME280;66190;50.708;7.906;2023-04-24T01:36:16;95013.50;;;8.16;92.41
77207;BME280;66190;50.708;7.906;2023-04-24T01:38:41;95015.78;;;8.12;91.72
77207;BME280;66190;50.708;7.906;2023-04-24T01:41:07;95016.16;;;8.16;91.48
77207;BME280;66190;50.708;7.906;2023-04-24T01:43:32;95016.63;;;8.13;91.75
77207;BME280;66190;50.708;7.906;2023-04-24T01:45:58;95022.81;;;8.13;90.43
77207;BME280;66190;50.708;7.906;2023-04-24T01:48:23;95023.38;;;8.15;90.66
77207;BME280;66190;50.708;7.906;2023-04-24T01:50:49;95024.44;;;8.14;91.10
77207;BME280;66190;50.708;7.906;2023-04-24T01:53:14;95021.75;;;8.14;91.16
77207;BME280;66190;50.708;7.906;2023-04-24T01:55:40;95022.63;;;8.08;90.77
77207;BME280;66190;50.708;7.906;2023-04-24T01:58:06;95035.38;;;8.13;90.71
77207;BME280;66190;50.708;7.906;2023-04-24T02:00:32;95032.31;;;8.09;90.86
77207;BME280;66190;50.708;7.906;2023-04-24T02:02:58;95039.91;;;8.12;90.54
77207;BME280;66190;50.708;7.906;2023-04-24T02:05:23;95041.56;;;8.13;90.59
77207;BME280;66190;50.708;7.906;2023-04-24T02:07:48;95040.50;;;8.14;90.31
77207;BME280;66190;50.708;7.906;2023-04-24T02:10:14;95042.34;;;8.14;90.70
77207;BME280;66190;50.708;7.906;2023-04-24T02:12:39;95043.19;;;8.14;91.15
77207;BME280;66190;50.708;7.906;2023-04-24T02:15:05;95040.28;;;8.16;91.76
77207;BME280;66190;50.708;7.906;2023-04-24T02:17:31;95035.38;;;8.13;91.72
77207;BME280;66190;50.708;7.906;2023-04-24T02:19:57;95035.53;;;8.18;91.86
77207;BME280;66190;50.708;7.906;2023-04-24T02:22:22;95028.16;;;8.13;92.31
77207;BME280;66190;50.708;7.906;2023-04-24T02:24:47;95017.88;;;8.10;92.60
77207;BME280;66190;50.708;7.906;2023-04-24T02:27:13;95020.78;;;8.08;92.23
77207;BME280;66190;50.708;7.906;2023-04-24T02:29:38;95024.44;;;8.14;92.01
77207;BME280;66190;50.708;7.906;2023-04-24T02:32:04;95030.00;;;8.13;91.88
77207;BME280;66190;50.708;7.906;2023-04-24T02:34:29;95020.31;;;8.12;91.80
77207;BME280;66190;50.708;7.906;2023-04-24T02:36:54;95025.31;;;8.08;91.80
77207;BME280;66190;50.708;7.906;2023-04-24T02:39:20;95025.13;;;8.10;91.67
77207;BME280;66190;50.708;7.906;2023-04-24T02:41:46;95031.50;;;8.08;91.82
77207;BME280;66190;50.708;7.906;2023-04-24T02:44:11;95038.94;;;8.06;91.87
77207;BME280;66190;50.708;7.906;2023-04-24T02:46:37;95043.91;;;8.03;91.20
77207;BME280;66190;50.708;7.906;2023-04-24T02:49:02;95046.34;;;8.04;91.92
77207;BME280;66190;50.708;7.906;2023-04-24T02:51:28;95039.16;;;8.05;91.84
77207;BME280;66190;50.708;7.906;2023-04-24T02:53:53;95041.81;;;8.05;91.76
77207;BME280;66190;50.708;7.906;2023-04-24T02:56:19;95057.13;;;7.98;91.75
77207;BME280;66190;50.708;7.906;2023-04-24T02:58:44;95057.13;;;7.98;91.30
77207;BME280;66190;50.708;7.906;2023-04-24T03:01:10;95066.88;;;7.92;90.53
77207;BME280;66190;50.708;7.906;2023-04-24T03:03:36;95057.59;;;7.95;90.93
77207;BME280;66190;50.708;7.906;2023-04-24T03:06:02;95050.81;;;7.92;91.24
77207;BME280;66190;50.708;7.906;2023-04-24T03:08:28;95061.34;;;7.87;91.29
77207;BME280;66190;50.708;7.906;2023-04-24T03:10:53;95063.81;;;7.89;91.44
77207;BME280;66190;50.708;7.906;2023-04-24T03:13:18;95062.84;;;7.83;90.50
77207;BME280;66190;50.708;7.906;2023-04-24T03:15:44;95054.44;;;7.80;91.01
77207;BME280;66190;50.708;7.906;2023-04-24T03:18:10;95058.38;;;7.77;91.18
77207;BME280;66190;50.708;7.906;2023-04-24T03:20:35;95059.66;;;7.68;90.65
77207;BME280;66190;50.708;7.906;2023-04-24T03:23:02;95056.84;;;7.63;90.86
77207;BME280;66190;50.708;7.906;2023-04-24T03:25:28;95064.09;;;7.56;91.18
77207;BME280;66190;50.708;7.906;2023-04-24T03:27:53;95065.78;;;7.51;90.87
77207;BME280;66190;50.708;7.906;2023-04-24T03:30:20;95061.94;;;7.40;89.68
77207;BME280;66190;50.708;7.906;2023-04-24T03:32:45;95071.47;;;7.36;89.19
77207;BME280;66190;50.708;7.906;2023-04-24T03:35:10;95072.38;;;7.24;87.91
77207;BME280;66190;50.708;7.906;2023-04-24T03:37:36;95083.34;;;7.16;86.50
77207;BME280;66190;50.708;7.906;2023-04-24T03:40:02;95082.31;;;7.10;86.36
77207;BME280;66190;50.708;7.906;2023-04-24T03:42:27;95094.09;;;7.03;85.76
77207;BME280;66190;50.708;7.906;2023-04-24T03:44:53;95084.44;;;6.95;85.88
77207;BME280;66190;50.708;7.906;2023-04-24T03:47:19;95090.88;;;6.87;86.48
77207;BME280;66190;50.708;7.906;2023-04-24T03:49:44;95099.94;;;6.80;85.87
77207;BME280;66190;50.708;7.906;2023-04-24T03:52:09;95085.19;;;6.77;86.03
77207;BME280;66190;50.708;7.906;2023-04-24T03:54:35;95102.69;;;6.67;85.45
77207;BME280;66190;50.708;7.906;2023-04-24T03:57:00;95102.28;;;6.63;85.23
77207;BME280;66190;50.708;7.906;2023-04-24T03:59:28;95096.38;;;6.55;85.15
77207;BME280;66190;50.708;7.906;2023-04-24T04:01:53;95112.81;;;6.52;85.26
77207;BME280;66190;50.708;7.906;2023-04-24T04:04:19;95113.66;;;6.46;86.20
77207;BME280;66190;50.708;7.906;2023-04-24T04:06:44;95113.69;;;6.39;86.08
77207;BME280;66190;50.708;7.906;2023-04-24T04:09:11;95127.66;;;6.35;86.29
77207;BME280;66190;50.708;7.906;2023-04-24T04:11:37;95132.59;;;6.31;86.43
77207;BME280;66190;50.708;7.906;2023-04-24T04:14:03;95129.50;;;6.28;86.86
77207;BME280;66190;50.708;7.906;2023-04-24T04:16:28;95126.22;;;6.26;86.05
77207;BME280;66190;50.708;7.906;2023-04-24T04:18:53;95133.81;;;6.22;85.61
77207;BME280;66190;50.708;7.906;2023-04-24T04:21:19;95128.06;;;6.19;86.40
77207;BME280;66190;50.708;7.906;2023-04-24T04:23:44;95134.44;;;6.24;86.18
77207;BME280;66190;50.708;7.906;2023-04-24T04:26:11;95138.59;;;6.20;85.81
77207;BME280;66190;50.708;7.906;2023-04-24T04:28:37;95145.34;;;6.23;85.59
77207;BME280;66190;50.708;7.906;2023-04-24T04:31:04;95143.91;;;6.14;83.92
77207;BME280;66190;50.708;7.906;2023-04-24T04:33:30;95128.72;;;6.08;84.08
77207;BME280;66190;50.708;7.906;2023-04-24T04:35:56;95139.81;;;5.98;83.68
77207;BME280;66190;50.708;7.906;2023-04-24T04:38:22;95134.69;;;5.97;84.45
77207;BME280;66190;50.708;7.906;2023-04-24T04:40:47;95134.47;;;5.92;84.45
77207;BME280;66190;50.708;7.906;2023-04-24T04:43:12;95147.84;;;5.85;84.84
77207;BME280;66190;50.708;7.906;2023-04-24T04:45:40;95139.22;;;5.83;85.04
77207;BME280;66190;50.708;7.906;2023-04-24T04:48:08;95139.22;;;5.83;85.21
77207;BME280;66190;50.708;7.906;2023-04-24T04:50:34;95140.41;;;5.80;85.84
77207;BME280;66190;50.708;7.906;2023-04-24T04:53:00;95142.47;;;5.78;85.45
77207;BME280;66190;50.708;7.906;2023-04-24T04:55:25;95142.47;;;5.78;85.75
77207;BME280;66190;50.708;7.906;2023-04-24T04:57:51;95136.72;;;5.82;86.06
77207;BME280;66190;50.708;7.906;2023-04-24T05:00:17;95129.94;;;5.79;85.80
77207;BME280;66190;50.708;7.906;2023-04-24T05:02:42;95137.94;;;5.79;86.29
77207;BME280;66190;50.708;7.906;2023-04-24T05:05:08;95148.81;;;5.77;86.03
77207;BME280;66190;50.708;7.906;2023-04-24T05:07:34;95145.38;;;5.84;85.99
77207;BME280;66190;50.708;7.906;2023-04-24T05:09:59;95155.63;;;5.87;86.19
77207;BME280;66190;50.708;7.906;2023-04-24T05:12:25;95158.88;;;5.82;86.11
77207;BME280;66190;50.708;7.906;2023-04-24T05:14:50;95162.19;;;5.84;85.64
77207;BME280;66190;50.708;7.906;2023-04-24T05:17:16;95155.03;;;5.85;85.79
77207;BME280;66190;50.708;7.906;2023-04-24T05:19:41;95162.59;;;5.88;85.22
77207;BME280;66190;50.708;7.906;2023-04-24T05:22:07;95164.47;;;5.94;85.10
77207;BME280;66190;50.708;7.906;2023-04-24T05:24:33;95164.47;;;6.00;84.61
77207;BME280;66190;50.708;7.906;2023-04-24T05:26:59;95165.91;;;6.03;83.86
77207;BME280;66190;50.708;7.906;2023-04-24T05:29:25;95158.91;;;6.08;83.57
77207;BME280;66190;50.708;7.906;2023-04-24T05:31:51;95162.81;;;6.12;83.72
77207;BME280;66190;50.708;7.906;2023-04-24T05:34:17;95175.53;;;6.23;83.84
77207;BME280;66190;50.708;7.906;2023-04-24T05:36:43;95171.22;;;6.29;83.43
77207;BME280;66190;50.708;7.906;2023-04-24T05:39:08;95168.34;;;6.30;83.69
77207;BME280;66190;50.708;7.906;2023-04-24T05:41:34;95184.97;;;6.39;83.87
77207;BME280;66190;50.708;7.906;2023-04-24T05:43:59;95187.00;;;6.50;84.04
77207;BME280;66190;50.708;7.906;2023-04-24T05:46:25;95188.41;;;6.59;83.63
77207;BME280;66190;50.708;7.906;2023-04-24T05:48:50;95180.63;;;6.57;83.50
77207;BME280;66190;50.708;7.906;2023-04-24T05:51:16;95189.66;;;6.63;83.63
77207;BME280;66190;50.708;7.906;2023-04-24T05:53:41;95184.09;;;6.64;83.55
77207;BME280;66190;50.708;7.906;2023-04-24T05:56:06;95178.53;;;6.66;82.76
77207;BME280;66190;50.708;7.906;2023-04-24T05:58:32;95185.53;;;6.67;83.04
77207;BME280;66190;50.708;7.906;2023-04-24T06:00:57;95187.00;;;6.56;82.35
77207;BME280;66190;50.708;7.906;2023-04-24T06:03:24;95192.16;;;6.51;82.41
77207;BME280;66190;50.708;7.906;2023-04-24T06:05:50;95196.06;;;6.49;83.11
77207;BME280;66190;50.708;7.906;2023-04-24T06:08:16;95187.41;;;6.47;82.71
77207;BME280;66190;50.708;7.906;2023-04-24T06:10:42;95199.16;;;6.39;82.39
77207;BME280;66190;50.708;7.906;2023-04-24T06:13:07;95190.31;;;6.45;82.40
77207;BME280;66190;50.708;7.906;2023-04-24T06:15:32;95185.56;;;6.54;82.77
77207;BME280;66190;50.708;7.906;2023-04-24T06:17:58;95196.84;;;6.56;82.24
77207;BME280;66190;50.708;7.906;2023-04-24T06:20:24;95187.59;;;6.52;82.13
77207;BME280;66190;50.708;7.906;2023-04-24T06:22:50;95191.91;;;6.59;83.04
77207;BME280;66190;50.708;7.906;2023-04-24T06:25:15;95194.56;;;6.66;82.64
77207;BME280;66190;50.708;7.906;2023-04-24T06:27:41;95190.47;;;6.63;81.65
77207;BME280;66190;50.708;7.906;2023-04-24T06:30:07;95197.84;;;6.68;82.32
77207;BME280;66190;50.708;7.906;2023-04-24T06:32:32;95188.22;;;6.67;82.36
77207;BME280;66190;50.708;7.906;2023-04-24T06:34:57;95193.16;;;6.63;82.00
77207;BME280;66190;50.708;7.906;2023-04-24T06:37:23;95196.84;;;6.56;82.33
77207;BME280;66190;50.708;7.906;2023-04-24T06:39:49;95200.75;;;6.66;82.65
77207;BME280;66190;50.708;7.906;2023-04-24T06:42:14;95191.50;;;6.62;82.60
77207;BME280;66190;50.708;7.906;2023-04-24T06:44:40;95187.78;;;6.70;82.59
77207;BME280;66190;50.708;7.906;2023-04-24T06:47:07;95192.50;;;6.81;82.39
77207;BME280;66190;50.708;7.906;2023-04-24T06:49:34;95186.50;;;6.85;81.82
77207;BME280;66190;50.708;7.906;2023-04-24T06:52:00;95195.34;;;6.79;81.93
77207;BME280;66190;50.708;7.906;2023-04-24T06:54:25;95180.13;;;6.86;81.79
77207;BME280;66190;50.708;7.906;2023-04-24T06:56:51;95185.84;;;6.97;82.19
77207;BME280;66190;50.708;7.906;2023-04-24T06:59:17;95183.56;;;7.07;81.99
77207;BME280;66190;50.708;7.906;2023-04-24T07:01:42;95185.75;;;7.16;81.82
77207;BME280;66190;50.708;7.906;2023-04-24T07:04:08;95178.34;;;7.18;81.56
77207;BME280;66190;50.708;7.906;2023-04-24T07:06:33;95180.19;;;7.18;80.32
77207;BME280;66190;50.708;7.906;2023-04-24T07:09:00;95169.09;;;7.21;82.14
77207;BME280;66190;50.708;7.906;2023-04-24T07:11:27;95169.72;;;7.23;82.35
77207;BME280;66190;50.708;7.906;2023-04-24T07:13:55;95172.97;;;7.25;81.94
77207;BME280;66190;50.708;7.906;2023-04-24T07:16:20;95175.44;;;7.26;80.90
77207;BME280;66190;50.708;7.906;2023-04-24T07:18:46;95171.47;;;7.35;81.02
77207;BME280;66190;50.708;7.906;2023-04-24T07:21:11;95174.34;;;7.34;81.27
77207;BME280;66190;50.708;7.906;2023-04-24T07:23:36;95171.06;;;7.32;80.81
77207;BME280;66190;50.708;7.906;2023-04-24T07:26:02;95177.44;;;7.37;81.37
77207;BME280;66190;50.708;7.906;2023-04-24T07:28:28;95194.31;;;7.38;80.65
77207;BME280;66190;50.708;7.906;2023-04-24T07:30:56;95172.94;;;7.31;79.97
77207;BME280;66190;50.708;7.906;2023-04-24T07:33:22;95185.50;;;7.31;80.45
77207;BME280;66190;50.708;7.906;2023-04-24T07:35:48;95186.94;;;7.27;80.95
77207;BME280;66190;50.708;7.906;2023-04-24T07:38:13;95190.66;;;7.26;81.43
77207;BME280;66190;50.708;7.906;2023-04-24T07:40:38;95189.81;;;7.32;81.08
77207;BME280;66190;50.708;7.906;2023-04-24T07:43:04;95196.78;;;7.39;80.47
77207;BME280;66190;50.708;7.906;2023-04-24T07:45:30;95203.41;;;7.30;80.87
77207;BME280;66190;50.708;7.906;2023-04-24T07:47:56;95192.75;;;7.17;81.22
77207;BME280;66190;50.708;7.906;2023-04-24T07:50:22;95196.06;;;7.19;81.19
77207;BME280;66190;50.708;7.906;2023-04-24T07:52:47;95202.22;;;7.20;80.66
77207;BME280;66190;50.708;7.906;2023-04-24T07:55:13;95198.91;;;7.24;81.27
77207;BME280;66190;50.708;7.906;2023-04-24T07:57:38;95211.06;;;7.20;81.63
77207;BME280;66190;50.708;7.906;2023-04-24T08:00:04;95231.00;;;7.24;82.13
77207;BME280;66190;50.708;7.906;2023-04-24T08:02:30;95212.72;;;7.15;82.35
77207;BME280;66190;50.708;7.906;2023-04-24T08:04:56;95217.88;;;7.10;83.34
77207;BME280;66190;50.708;7.906;2023-04-24T08:07:23;95232.13;;;7.04;83.36
77207;BME280;66190;50.708;7.906;2023-04-24T08:09:49;95228.81;;;6.95;84.90
77207;BME280;66190;50.708;7.906;2023-04-24T08:12:14;95223.72;;;6.87;85.17
77207;BME280;66190;50.708;7.906;2023-04-24T08:14:40;95237.72;;;6.82;86.10
77207;BME280;66190;50.708;7.906;2023-04-24T08:17:05;95238.53;;;6.83;86.73
77207;BME280;66190;50.708;7.906;2023-04-24T08:19:31;95234.19;;;6.88;87.56
77207;BME280;66190;50.708;7.906;2023-04-24T08:21:56;95251.47;;;6.93;87.78
77207;BME280;66190;50.708;7.906;2023-04-24T08:24:22;95245.09;;;6.87;86.72
77207;BME280;66190;50.708;7.906;2023-04-24T08:26:48;95245.09;;;6.87;87.80
77207;BME280;66190;50.708;7.906;2023-04-24T08:29:17;95251.69;;;6.91;87.49
77207;BME280;66190;50.708;7.906;2023-04-24T08:31:42;95244.88;;;6.88;87.77
77207;BME280;66190;50.708;7.906;2023-04-24T08:34:09;95254.16;;;6.93;88.67
77207;BME280;66190;50.708;7.906;2023-04-24T08:36:34;95246.75;;;6.95;88.25
77207;BME280;66190;50.708;7.906;2023-04-24T08:39:00;95259.31;;;6.87;89.32
77207;BME280;66190;50.708;7.906;2023-04-24T08:41:26;95253.16;;;6.80;89.15
77207;BME280;66190;50.708;7.906;2023-04-24T08:43:52;95262.56;;;6.83;90.02
77207;BME280;66190;50.708;7.906;2023-04-24T08:46:19;95252.06;;;6.88;90.34
77207;BME280;66190;50.708;7.906;2023-04-24T08:48:44;95251.09;;;6.82;90.13
77207;BME280;66190;50.708;7.906;2023-04-24T08:51:10;95260.75;;;6.77;90.65
77207;BME280;66190;50.708;7.906;2023-04-24T08:53:36;95264.44;;;6.76;90.40
77207;BME280;66190;50.708;7.906;2023-04-24T08:56:02;95259.94;;;6.70;90.58
77207;BME280;66190;50.708;7.906;2023-04-24T08:58:28;95264.25;;;6.71;90.83
77207;BME280;66190;50.708;7.906;2023-04-24T09:00:57;95267.97;;;6.63;91.16
77207;BME280;66190;50.708;7.906;2023-04-24T09:03:23;95281.53;;;6.68;91.58
77207;BME280;66190;50.708;7.906;2023-04-24T09:05:49;95282.97;;;6.64;91.17
77207;BME280;66190;50.708;7.906;2023-04-24T09:08:18;95283.81;;;6.65;91.97
77207;BME280;66190;50.708;7.906;2023-04-24T09:10:44;95292.41;;;6.60;92.20
77207;BME280;66190;50.708;7.906;2023-04-24T09:13:09;95292.00;;;6.57;92.18
77207;BME280;66190;50.708;7.906;2023-04-24T09:15:36;95291.81;;;6.58;92.61
77207;BME280;66190;50.708;7.906;2023-04-24T09:18:02;95297.34;;;6.57;93.28
77207;BME280;66190;50.708;7.906;2023-04-24T09:20:27;95296.97;;;6.60;93.25
77207;BME280;66190;50.708;7.906;2023-04-24T09:22:59;95313.63;;;6.62;93.07
77207;BME280;66190;50.708;7.906;2023-04-24T09:25:34;95303.09;;;6.60;92.98
77207;BME280;66190;50.708;7.906;2023-04-24T09:28:04;95335.81;;;6.56;92.45
77207;BME280;66190;50.708;7.906;2023-04-24T09:30:30;95331.47;;;6.48;93.34
77207;BME280;66190;50.708;7.906;2023-04-24T09:33:15;95345.44;;;6.31;92.36
77207;BME280;66190;50.708;7.906;2023-04-24T09:35:51;95360.66;;;6.30;90.80
77207;BME280;66190;50.708;7.906;2023-04-24T09:38:17;95354.63;;;5.96;87.68
77207;BME280;66190;50.708;7.906;2023-04-24T09:40:42;95381.31;;;5.61;87.78
77207;BME280;66190;50.708;7.906;2023-04-24T09:43:11;95384.94;;;5.47;89.46
77207;BME280;66190;50.708;7.906;2023-04-24T09:45:37;95398.38;;;5.26;89.79
77207;BME280;66190;50.708;7.906;2023-04-24T09:48:03;95402.84;;;5.19;90.68
77207;BME280;66190;50.708;7.906;2023-04-24T09:50:32;95417.00;;;5.20;90.85
77207;BME280;66190;50.708;7.906;2023-04-24T09:53:04;95417.78;;;5.14;90.16
77207;BME280;66190;50.708;7.906;2023-04-24T09:55:30;95427.28;;;5.23;90.52
77207;BME280;66190;50.708;7.906;2023-04-24T09:57:58;95437.16;;;5.01;89.65
77207;BME280;66190;50.708;7.906;2023-04-24T10:00:29;95414.75;;;5.23;90.64
77207;BME280;66190;50.708;7.906;2023-04-24T10:02:56;95424.03;;;5.27;90.34
77207;BME280;66190;50.708;7.906;2023-04-24T10:05:47;95432.34;;;5.18;90.69
77207;BME280;66190;50.708;7.906;2023-04-24T10:08:13;95434.06;;;5.25;91.42
77207;BME280;66190;50.708;7.906;2023-04-24T10:10:44;95432.19;;;5.19;91.18
77207;BME280;66190;50.708;7.906;2023-04-24T10:13:11;95435.75;;;5.33;91.80
77207;BME280;66190;50.708;7.906;2023-04-24T10:15:38;95436.72;;;5.25;91.63
77207;BME280;66190;50.708;7.906;2023-04-24T10:18:07;95440.03;;;5.27;91.92
77207;BME280;66190;50.708;7.906;2023-04-24T10:20:35;95449.81;;;5.20;91.49
77207;BME280;66190;50.708;7.906;2023-04-24T10:23:01;95439.81;;;5.29;91.87
77207;BME280;66190;50.708;7.906;2023-04-24T10:25:31;95442.53;;;5.35;91.63
77207;BME280;66190;50.708;7.906;2023-04-24T10:27:57;95447.28;;;5.40;90.71
77207;BME280;66190;50.708;7.906;2023-04-24T10:30:26;95451.03;;;5.45;90.87
77207;BME280;66190;50.708;7.906;2023-04-24T10:32:52;95452.25;;;5.49;91.25
77207;BME280;66190;50.708;7.906;2023-04-24T10:35:18;95469.31;;;5.48;90.49
77207;BME280;66190;50.708;7.906;2023-04-24T10:38:09;95459.63;;;5.47;90.59
77207;BME280;66190;50.708;7.906;2023-04-24T10:40:36;95460.25;;;5.49;91.21
77207;BME280;66190;50.708;7.906;2023-04-24T10:43:06;95481.38;;;5.44;91.10
77207;BME280;66190;50.708;7.906;2023-04-24T10:45:34;95467.06;;;5.52;91.67
77207;BME280;66190;50.708;7.906;2023-04-24T10:48:03;95471.66;;;5.64;91.86
77207;BME280;66190;50.708;7.906;2023-04-24T10:50:41;95473.72;;;5.69;92.18
77207;BME280;66190;50.708;7.906;2023-04-24T10:53:13;95481.19;;;5.80;92.27
77207;BME280;66190;50.708;7.906;2023-04-24T10:55:51;95480.28;;;5.94;92.17
77207;BME280;66190;50.708;7.906;2023-04-24T10:58:22;95480.66;;;5.91;91.39
77207;BME280;66190;50.708;7.906;2023-04-24T11:00:58;95490.28;;;5.86;91.13
77207;BME280;66190;50.708;7.906;2023-04-24T11:03:32;95501.00;;;5.92;91.05
77207;BME280;66190;50.708;7.906;2023-04-24T11:08:27;95496.97;;;6.03;91.56
77207;BME280;66190;50.708;7.906;2023-04-24T11:11:03;95491.63;;;6.03;91.39
77207;BME280;66190;50.708;7.906;2023-04-24T11:19:25;95519.31;;;6.02;90.63
77207;BME280;66190;50.708;7.906;2023-04-24T11:24:33;95515.91;;;6.14;91.27
77207;BME280;66190;50.708;7.906;2023-04-24T11:27:17;95518.66;;;6.34;90.79
77207;BME280;66190;50.708;7.906;2023-04-24T11:35:01;95518.13;;;6.51;90.32
77207;BME280;66190;50.708;7.906;2023-04-24T11:37:29;95521.59;;;6.52;89.72
77207;BME280;66190;50.708;7.906;2023-04-24T11:39:56;95523.41;;;6.38;90.34
77207;BME280;66190;50.708;7.906;2023-04-24T11:42:22;95521.72;;;6.31;90.91
77207;BME280;66190;50.708;7.906;2023-04-24T11:44:49;95523.81;;;6.35;90.98
77207;BME280;66190;50.708;7.906;2023-04-24T11:47:15;95531.66;;;6.50;91.85
77207;BME280;66190;50.708;7.906;2023-04-24T11:49:40;95548.09;;;6.47;91.13
77207;BME280;66190;50.708;7.906;2023-04-24T11:52:06;95527.13;;;6.44;90.55
77207;BME280;66190;50.708;7.906;2023-04-24T11:54:31;95531.31;;;6.66;91.08
77207;BME280;66190;50.708;7.906;2023-04-24T11:56:57;95521.03;;;6.69;90.65
77207;BME280;66190;50.708;7.906;2023-04-24T11:59:23;95537.84;;;6.57;91.16
77207;BME280;66190;50.708;7.906;2023-04-24T12:01:49;95536.63;;;6.59;91.16
77207;BME280;66190;50.708;7.906;2023-04-24T12:04:17;95534.41;;;6.69;90.80
77207;BME280;66190;50.708;7.906;2023-04-24T12:07:03;95528.91;;;6.90;91.27
77207;BME280;66190;50.708;7.906;2023-04-24T12:09:29;95531.19;;;7.00;90.31
77207;BME280;66190;50.708;7.906;2023-04-24T12:12:06;95535.50;;;6.95;90.03
77207;BME280;66190;50.708;7.906;2023-04-24T12:14:31;95544.31;;;6.95;90.54
77207;BME280;66190;50.708;7.906;2023-04-24T12:16:57;95540.03;;;7.01;91.09
77207;BME280;66190;50.708;7.906;2023-04-24T12:19:23;95535.28;;;6.89;89.79
77207;BME280;66190;50.708;7.906;2023-04-24T12:22:02;95543.31;;;6.96;90.08
77207;BME280;66190;50.708;7.906;2023-04-24T12:24:28;95556.41;;;6.78;89.08
77207;BME280;66190;50.708;7.906;2023-04-24T12:26:53;95542.41;;;6.69;88.69
77207;BME280;66190;50.708;7.906;2023-04-24T12:29:20;95545.34;;;6.81;90.75
77207;BME280;66190;50.708;7.906;2023-04-24T12:31:46;95549.03;;;6.80;90.42
77207;BME280;66190;50.708;7.906;2023-04-24T12:34:22;95564.03;;;6.74;89.85
77207;BME280;66190;50.708;7.906;2023-04-24T12:36:48;95555.44;;;6.85;91.03
77207;BME280;66190;50.708;7.906;2023-04-24T12:39:22;95565.72;;;6.95;90.76
77207;BME280;66190;50.708;7.906;2023-04-24T12:41:55;95563.47;;;6.99;91.25
77207;BME280;66190;50.708;7.906;2023-04-24T12:44:32;95569.00;;;6.90;90.80
77207;BME280;66190;50.708;7.906;2023-04-24T12:47:02;95570.66;;;6.91;91.24
77207;BME280;66190;50.708;7.906;2023-04-24T12:49:29;95570.81;;;6.77;90.90
77207;BME280;66190;50.708;7.906;2023-04-24T12:51:55;95582.50;;;6.69;90.59
77207;BME280;66190;50.708;7.906;2023-04-24T12:54:21;95585.34;;;6.55;88.47
77207;BME280;66190;50.708;7.906;2023-04-24T12:56:46;95589.84;;;6.48;88.18
77207;BME280;66190;50.708;7.906;2023-04-24T12:59:12;95585.69;;;6.45;87.94
77207;BME280;66190;50.708;7.906;2023-04-24T13:01:37;95577.34;;;6.55;88.16
77207;BME280;66190;50.708;7.906;2023-04-24T13:04:02;95579.69;;;6.77;89.38
77207;BME280;66190;50.708;7.906;2023-04-24T13:06:28;95583.66;;;7.01;89.69
77207;BME280;66190;50.708;7.906;2023-04-24T13:08:53;95587.78;;;7.04;88.43
77207;BME280;66190;50.708;7.906;2023-04-24T13:11:20;95584.91;;;7.12;88.91
77207;BME280;66190;50.708;7.906;2023-04-24T13:13:47;95591.88;;;7.06;89.48
77207;BME280;66190;50.708;7.906;2023-04-24T13:16:12;95585.69;;;6.99;90.51
77207;BME280;66190;50.708;7.906;2023-04-24T13:18:38;95579.56;;;7.05;90.88
77207;BME280;66190;50.708;7.906;2023-04-24T13:21:03;95586.53;;;7.00;90.88
77207;BME280;66190;50.708;7.906;2023-04-24T13:23:28;95589.19;;;6.93;91.15